Time;durP1;ratioP1;P1;durP2;ratioP2;P2;SDS_P1;SDS_P2;PMS_P1;PMS_P2;Temp;Humidity;BMP_temperature;BMP_pressure;BME280_temperature;BME280_humidity;BME280_pressure;Samples;Min_cycle;Max_cycle;Signal;HPM_P1;HPM_P2
2022/11/28 00:01:04;;;;;;;8.40;6.95;;;5.90;99.90;;;;;;4973141;28;20049;-45
2022/11/28 00:03:30;;;;;;;9.95;6.57;;;5.90;99.90;;;;;;4972562;28;20106;-45
2022/11/28 00:05:56;;;;;;;9.50;6.82;;;5.90;99.90;;;;;;4972995;28;20062;-48
2022/11/28 00:08:21;;;;;;;9.70;7.45;;;5.80;99.90;;;;;;4988030;28;20042;-48
2022/11/28 00:10:47;;;;;;;9.32;6.28;;;5.80;99.90;;;;;;4973069;28;20031;-48
2022/11/28 00:13:12;;;;;;;8.13;6.63;;;5.80;99.90;;;;;;4975106;28;20097;-44
2022/11/28 00:15:38;;;;;;;9.02;6.30;;;5.80;99.90;;;;;;4974412;28;20121;-49
2022/11/28 00:18:04;;;;;;;11.60;6.90;;;5.80;99.90;;;;;;4976847;28;20022;-46
2022/11/28 00:20:30;;;;;;;12.85;6.57;;;5.80;99.90;;;;;;4976933;28;20471;-46
2022/11/28 00:22:56;;;;;;;8.98;6.13;;;5.80;99.90;;;;;;4975912;28;20030;-45
2022/11/28 00:25:21;;;;;;;9.70;6.47;;;5.70;99.90;;;;;;4976652;28;20030;-47
2022/11/28 00:27:47;;;;;;;7.43;6.15;;;5.70;99.90;;;;;;4977002;28;20081;-45
2022/11/28 00:30:13;;;;;;;10.18;7.70;;;5.70;99.90;;;;;;4976497;28;20085;-47
2022/11/28 00:32:38;;;;;;;9.15;6.93;;;5.60;99.90;;;;;;4975715;28;20090;-48
2022/11/28 00:35:04;;;;;;;8.48;6.43;;;5.60;99.90;;;;;;4976358;28;20036;-50
2022/11/28 00:37:29;;;;;;;7.72;6.43;;;5.60;99.90;;;;;;4976449;28;20369;-49
2022/11/28 00:39:55;;;;;;;7.82;6.28;;;5.60;99.90;;;;;;4976140;28;20043;-46
2022/11/28 00:42:21;;;;;;;9.30;6.53;;;5.50;99.90;;;;;;4975372;28;20030;-50
2022/11/28 00:44:47;;;;;;;8.93;7.03;;;5.50;99.90;;;;;;4976879;28;20027;-47
2022/11/28 00:47:13;;;;;;;8.85;6.75;;;5.50;99.90;;;;;;4976775;28;20031;-44
2022/11/28 00:49:38;;;;;;;7.75;6.25;;;5.50;99.90;;;;;;4977251;28;20085;-44
2022/11/28 00:52:04;;;;;;;8.07;6.85;;;5.60;99.90;;;;;;4975828;28;20455;-45
2022/11/28 00:54:30;;;;;;;7.85;6.50;;;5.50;99.90;;;;;;4976473;28;20113;-46
2022/11/28 00:56:55;;;;;;;8.18;6.05;;;5.60;99.90;;;;;;4976075;28;20027;-44
2022/11/28 00:59:20;;;;;;;7.35;5.93;;;5.60;99.90;;;;;;4975581;28;20553;-46
2022/11/28 01:01:46;;;;;;;8.77;5.97;;;5.60;99.90;;;;;;4990452;28;20030;-49
2022/11/28 01:04:14;;;;;;;7.88;6.03;;;5.50;99.90;;;;;;4975235;28;20045;-46
2022/11/28 01:06:46;;;;;;;10.95;6.00;;;5.50;99.90;;;;;;4975570;28;20089;-45
2022/11/28 01:09:20;;;;;;;7.47;6.60;;;5.50;99.90;;;;;;4975606;28;20038;-47
2022/11/28 01:11:48;;;;;;;9.18;6.53;;;5.50;99.90;;;;;;4976701;28;20113;-47
2022/11/28 01:14:14;;;;;;;8.15;6.50;;;5.50;99.90;;;;;;4975104;28;20023;-48
2022/11/28 01:16:40;;;;;;;9.18;6.13;;;5.50;99.90;;;;;;4972586;28;20023;-48
2022/11/28 01:19:07;;;;;;;9.68;7.00;;;5.50;99.90;;;;;;4975453;28;20554;-47
2022/11/28 01:21:33;;;;;;;8.30;6.57;;;5.40;99.90;;;;;;4975532;28;20395;-48
2022/11/28 01:23:58;;;;;;;9.35;6.45;;;5.40;99.90;;;;;;4973954;28;20106;-48
2022/11/28 01:26:26;;;;;;;9.95;6.68;;;5.40;99.90;;;;;;4990215;28;20521;-49
2022/11/28 01:28:53;;;;;;;7.93;5.95;;;5.40;99.90;;;;;;4990654;28;20113;-47
2022/11/28 01:31:21;;;;;;;8.75;6.40;;;5.40;99.90;;;;;;4975088;28;20027;-50
2022/11/28 01:33:47;;;;;;;7.32;5.90;;;5.40;99.90;;;;;;4973426;28;20522;-50
2022/11/28 01:36:13;;;;;;;8.80;6.85;;;5.40;99.90;;;;;;4973304;28;20054;-47
2022/11/28 01:38:40;;;;;;;10.70;7.05;;;5.40;99.90;;;;;;4974859;28;20479;-49
2022/11/28 01:41:06;;;;;;;7.50;6.50;;;5.40;99.90;;;;;;4974644;28;20502;-48
2022/11/28 01:43:33;;;;;;;7.20;6.03;;;5.40;99.90;;;;;;4974044;28;20487;-49
2022/11/28 01:45:59;;;;;;;10.55;6.38;;;5.40;99.90;;;;;;4975150;28;20071;-49
2022/11/28 01:48:28;;;;;;;7.80;6.93;;;5.40;99.90;;;;;;4974673;28;20102;-48
2022/11/28 01:50:58;;;;;;;7.57;6.32;;;5.40;99.90;;;;;;4989405;28;20422;-49
2022/11/28 01:53:27;;;;;;;8.50;7.05;;;5.40;99.90;;;;;;4973883;28;20023;-48
2022/11/28 01:56:11;;;;;;;10.07;7.18;;;5.40;99.90;;;;;;4989481;28;20440;-50
2022/11/28 01:58:43;;;;;;;8.65;7.00;;;5.40;99.90;;;;;;4974434;28;20070;-47
2022/11/28 02:01:09;;;;;;;10.40;7.72;;;5.40;99.90;;;;;;4974169;28;20034;-48
2022/11/28 02:03:44;;;;;;;10.05;7.72;;;5.40;99.90;;;;;;4973763;28;20038;-50
2022/11/28 02:06:11;;;;;;;10.53;7.40;;;5.40;99.90;;;;;;4974324;28;20031;-48
2022/11/28 02:08:37;;;;;;;8.30;7.13;;;5.50;99.90;;;;;;4974305;28;20031;-47
2022/11/28 02:11:14;;;;;;;12.80;7.97;;;5.40;99.90;;;;;;4974314;28;20031;-48
2022/11/28 02:14:00;;;;;;;11.05;7.40;;;5.50;99.90;;;;;;4973515;28;20527;-50
2022/11/28 02:16:26;;;;;;;12.30;8.20;;;5.40;99.90;;;;;;4973023;28;20030;-48
2022/11/28 02:19:15;;;;;;;11.15;7.50;;;5.40;99.90;;;;;;4974121;28;20419;-48
2022/11/28 02:22:11;;;;;;;9.82;7.90;;;5.30;99.90;;;;;;4973848;28;20029;-50
2022/11/28 02:25:14;;;;;;;12.32;8.43;;;5.40;99.90;;;;;;4973837;28;20027;-49
2022/11/28 02:28:06;;;;;;;8.93;6.95;;;5.40;99.90;;;;;;4940285;28;20030;-48
2022/11/28 02:30:53;;;;;;;10.23;8.00;;;5.40;99.90;;;;;;4973831;28;20376;-48
2022/11/28 02:33:21;;;;;;;10.25;8.13;;;5.30;99.90;;;;;;4973210;28;20027;-52
2022/11/28 02:36:02;;;;;;;13.00;8.60;;;5.30;99.90;;;;;;4973779;28;20049;-52
2022/11/28 02:38:57;;;;;;;12.95;8.13;;;5.30;99.90;;;;;;4973727;28;20391;-48
2022/11/28 02:41:51;;;;;;;11.60;8.85;;;5.20;99.90;;;;;;4973546;28;20027;-47
2022/11/28 02:44:33;;;;;;;11.00;7.78;;;5.20;99.90;;;;;;4973511;28;20115;-49
2022/11/28 02:47:17;;;;;;;9.88;7.75;;;5.10;99.90;;;;;;4973522;28;20038;-48
2022/11/28 02:49:55;;;;;;;8.50;7.47;;;5.10;99.90;;;;;;4973502;28;20023;-47
2022/11/28 02:52:26;;;;;;;10.73;7.90;;;5.20;99.90;;;;;;4987431;28;20034;-47
2022/11/28 02:54:54;;;;;;;10.88;7.95;;;5.30;99.90;;;;;;4973517;28;20027;-47
2022/11/28 02:57:20;;;;;;;12.65;8.27;;;5.30;99.90;;;;;;4972057;28;20082;-48
2022/11/28 02:59:49;;;;;;;11.07;7.75;;;5.30;99.90;;;;;;4973242;28;20023;-48
2022/11/28 03:02:21;;;;;;;9.48;7.20;;;5.20;99.90;;;;;;4971206;28;20031;-49
2022/11/28 03:05:22;;;;;;;8.95;7.20;;;5.20;99.90;;;;;;4987921;28;20447;-47
2022/11/28 03:08:04;;;;;;;10.52;7.35;;;5.20;99.90;;;;;;4973081;28;20062;-46
2022/11/28 03:10:43;;;;;;;11.05;8.07;;;5.10;99.90;;;;;;4973272;28;20399;-47
2022/11/28 03:13:21;;;;;;;10.23;7.95;;;5.10;99.90;;;;;;4972240;28;20168;-50
2022/11/28 03:16:05;;;;;;;11.60;8.15;;;5.10;99.90;;;;;;4971189;28;20026;-48
2022/11/28 03:19:08;;;;;;;10.27;8.05;;;5.00;99.90;;;;;;4973053;28;20042;-51
2022/11/28 03:21:55;;;;;;;11.25;7.95;;;5.10;99.90;;;;;;4972874;28;20027;-50
2022/11/28 03:24:38;;;;;;;12.50;8.35;;;5.00;99.90;;;;;;4973160;28;20022;-46
2022/11/28 03:27:13;;;;;;;10.13;8.38;;;5.10;99.90;;;;;;4987763;28;20019;-53
2022/11/28 03:29:52;;;;;;;10.90;9.00;;;5.10;99.90;;;;;;4972974;28;20023;-48
2022/11/28 03:32:24;;;;;;;10.55;7.88;;;5.10;99.90;;;;;;4972057;28;20062;-49
2022/11/28 03:34:56;;;;;;;12.80;8.63;;;5.10;99.90;;;;;;4973012;28;20025;-51
2022/11/28 03:37:30;;;;;;;14.20;9.13;;;5.10;99.90;;;;;;4972817;28;20027;-47
2022/11/28 03:40:04;;;;;;;10.73;8.10;;;5.10;99.90;;;;;;4973849;28;20030;-48
2022/11/28 03:42:36;;;;;;;12.88;9.20;;;5.10;99.90;;;;;;4972875;28;20043;-49
2022/11/28 03:45:06;;;;;;;14.50;9.27;;;5.10;99.90;;;;;;4988129;28;20114;-47
2022/11/28 03:47:39;;;;;;;13.32;9.65;;;5.10;99.90;;;;;;4987125;28;20026;-48
2022/11/28 03:50:10;;;;;;;12.20;8.57;;;5.10;99.90;;;;;;4972988;28;20046;-49
2022/11/28 03:52:42;;;;;;;13.98;8.90;;;5.10;99.90;;;;;;4971746;28;20063;-48
2022/11/28 03:55:16;;;;;;;11.07;9.13;;;5.10;99.90;;;;;;4972732;28;20456;-49
2022/11/28 03:57:51;;;;;;;14.52;9.35;;;5.10;99.90;;;;;;4972989;28;20042;-47
2022/11/28 04:00:17;;;;;;;12.75;9.50;;;5.10;99.90;;;;;;4972846;28;20494;-46
2022/11/28 04:02:57;;;;;;;14.25;8.50;;;5.10;99.90;;;;;;4970541;28;20039;-45
2022/11/28 04:05:37;;;;;;;10.45;8.15;;;5.10;99.90;;;;;;4973079;28;20395;-48
2022/11/28 04:08:17;;;;;;;10.77;8.60;;;5.10;99.90;;;;;;4987416;28;20038;-46
2022/11/28 04:10:50;;;;;;;11.27;9.07;;;5.10;99.90;;;;;;4972665;28;20035;-48
2022/11/28 04:13:42;;;;;;;12.05;9.55;;;5.10;99.90;;;;;;4971618;28;20035;-44
2022/11/28 04:16:23;;;;;;;12.57;8.65;;;5.10;99.90;;;;;;4985893;28;20499;-45
2022/11/28 04:18:59;;;;;;;12.20;8.77;;;5.10;99.90;;;;;;4972438;28;20097;-45
2022/11/28 04:21:27;;;;;;;11.35;8.43;;;5.10;99.90;;;;;;4972225;28;20050;-46
2022/11/28 04:23:55;;;;;;;16.25;9.45;;;5.10;99.90;;;;;;4971687;28;20027;-48
2022/11/28 04:26:47;;;;;;;12.80;8.40;;;5.00;99.90;;;;;;4972200;28;20034;-51
2022/11/28 04:29:16;;;;;;;9.70;7.47;;;5.00;99.90;;;;;;4980853;28;20059;-50
2022/11/28 04:31:44;;;;;;;12.75;8.35;;;5.00;99.90;;;;;;4986887;28;20082;-47
2022/11/28 04:34:13;;;;;;;11.57;7.93;;;5.00;99.90;;;;;;4986614;28;20434;-47
2022/11/28 04:36:42;;;;;;;9.93;7.90;;;5.10;99.90;;;;;;4972122;28;20023;-47
2022/11/28 04:39:16;;;;;;;10.88;8.40;;;5.10;99.90;;;;;;4972334;28;20030;-50
2022/11/28 04:41:53;;;;;;;10.73;8.68;;;5.10;99.90;;;;;;4970724;28;20074;-51
2022/11/28 04:44:30;;;;;;;11.13;7.97;;;5.20;99.90;;;;;;4971892;28;20023;-47
2022/11/28 04:46:56;;;;;;;9.35;7.65;;;5.10;99.90;;;;;;4972187;28;20030;-48
2022/11/28 04:49:23;;;;;;;9.68;7.75;;;5.20;99.90;;;;;;4972151;28;20536;-50
2022/11/28 04:52:07;;;;;;;12.90;8.00;;;5.20;99.90;;;;;;4971728;28;20051;-47
2022/11/28 04:54:56;;;;;;;11.07;8.68;;;5.20;99.90;;;;;;4987079;28;20023;-47
2022/11/28 04:57:41;;;;;;;10.40;8.25;;;5.20;99.90;;;;;;4971940;28;20126;-49
2022/11/28 05:00:10;;;;;;;10.65;8.65;;;5.20;99.90;;;;;;4974791;28;20079;-48
2022/11/28 05:02:37;;;;;;;9.85;7.85;;;5.20;99.90;;;;;;4974527;28;20034;-47
2022/11/28 05:05:11;;;;;;;10.27;8.63;;;5.20;99.90;;;;;;4975438;28;20027;-47
2022/11/28 05:07:36;;;;;;;12.98;8.70;;;5.20;99.90;;;;;;4975255;28;20122;-47
2022/11/28 05:10:02;;;;;;;10.07;7.80;;;5.20;99.90;;;;;;4975413;28;20102;-47
2022/11/28 05:12:27;;;;;;;9.52;8.18;;;5.20;99.90;;;;;;4974199;28;20073;-49
2022/11/28 05:14:53;;;;;;;11.10;8.93;;;5.20;99.90;;;;;;4975306;28;20607;-47
2022/11/28 05:17:18;;;;;;;9.85;8.60;;;5.30;99.90;;;;;;4973442;28;20075;-49
2022/11/28 05:19:44;;;;;;;12.25;8.43;;;5.30;99.90;;;;;;4975422;28;20035;-48
2022/11/28 05:22:09;;;;;;;8.82;7.88;;;5.20;99.90;;;;;;4974335;28;20118;-47
2022/11/28 05:24:35;;;;;;;11.90;8.48;;;5.20;99.90;;;;;;4975325;28;20037;-47
2022/11/28 05:27:00;;;;;;;11.48;8.55;;;5.20;99.90;;;;;;4989948;28;20435;-46
2022/11/28 05:29:26;;;;;;;13.48;10.30;;;5.20;99.90;;;;;;4974968;28;20052;-49
2022/11/28 05:31:51;;;;;;;12.68;8.15;;;5.20;99.90;;;;;;4974208;28;20027;-48
2022/11/28 05:34:17;;;;;;;12.43;8.90;;;5.20;99.90;;;;;;4974547;28;20023;-49
2022/11/28 05:36:42;;;;;;;10.13;9.10;;;5.20;99.90;;;;;;4975055;28;20019;-49
2022/11/28 05:39:08;;;;;;;16.83;8.88;;;5.30;99.90;;;;;;4974577;28;20029;-47
2022/11/28 05:41:33;;;;;;;15.10;9.00;;;5.20;99.90;;;;;;4989442;28;20027;-48
2022/11/28 05:44:00;;;;;;;11.65;9.05;;;5.30;99.90;;;;;;4973914;28;20027;-49
2022/11/28 05:46:27;;;;;;;11.35;9.43;;;5.30;99.90;;;;;;4974456;28;20139;-48
2022/11/28 05:48:52;;;;;;;13.10;8.77;;;5.20;99.90;;;;;;4974432;28;20027;-51
2022/11/28 05:51:18;;;;;;;13.15;9.40;;;5.20;99.90;;;;;;4974544;28;20031;-47
2022/11/28 05:53:43;;;;;;;12.25;9.50;;;5.20;99.90;;;;;;4988589;28;20019;-48
2022/11/28 05:56:15;;;;;;;11.93;8.73;;;5.20;99.90;;;;;;4974446;28;20074;-50
2022/11/28 05:58:41;;;;;;;14.73;9.65;;;5.10;99.90;;;;;;4974282;28;20051;-48
2022/11/28 06:01:15;;;;;;;16.88;9.60;;;5.20;99.90;;;;;;4974183;28;20062;-49
2022/11/28 06:03:41;;;;;;;13.60;8.98;;;5.10;99.90;;;;;;4973515;28;20035;-51
2022/11/28 06:06:18;;;;;;;15.15;9.10;;;5.10;99.90;;;;;;4974300;28;20414;-48
2022/11/28 06:08:46;;;;;;;10.85;8.65;;;5.10;99.90;;;;;;4974161;28;20121;-50
2022/11/28 06:11:13;;;;;;;12.27;9.20;;;5.10;99.90;;;;;;4973677;28;20075;-48
2022/11/28 06:13:39;;;;;;;10.45;8.48;;;5.10;99.90;;;;;;4973246;28;20042;-48
2022/11/28 06:16:10;;;;;;;10.93;9.07;;;5.20;99.90;;;;;;4972523;28;20030;-47
2022/11/28 06:18:37;;;;;;;12.10;9.00;;;5.20;99.90;;;;;;4974295;28;20039;-47
2022/11/28 06:21:04;;;;;;;13.48;8.93;;;5.20;99.90;;;;;;4974206;28;20439;-50
2022/11/28 06:23:30;;;;;;;12.85;8.95;;;5.30;99.90;;;;;;4973128;28;20035;-48
2022/11/28 06:25:56;;;;;;;13.18;10.15;;;5.20;99.90;;;;;;4974008;28;20031;-48
2022/11/28 06:28:22;;;;;;;14.07;10.50;;;5.30;99.90;;;;;;4973884;28;20053;-46
2022/11/28 06:30:48;;;;;;;13.15;8.27;;;5.30;99.90;;;;;;4973865;28;20027;-47
2022/11/28 06:33:13;;;;;;;10.40;8.00;;;5.30;99.90;;;;;;4972990;28;20031;-48
2022/11/28 06:35:39;;;;;;;12.63;7.68;;;5.20;99.90;;;;;;4973860;28;20027;-48
2022/11/28 06:38:04;;;;;;;11.30;8.35;;;5.20;99.90;;;;;;4973679;28;20027;-49
2022/11/28 06:40:30;;;;;;;12.80;8.35;;;5.20;99.90;;;;;;4973759;28;20065;-48
2022/11/28 06:42:55;;;;;;;11.40;8.77;;;5.20;99.90;;;;;;4973010;28;20022;-47
2022/11/28 06:45:21;;;;;;;12.52;8.35;;;5.10;99.90;;;;;;4973534;28;20027;-50
2022/11/28 06:47:47;;;;;;;12.77;9.57;;;5.20;99.90;;;;;;4973367;28;20038;-49
2022/11/28 06:50:12;;;;;;;12.52;9.63;;;5.20;99.90;;;;;;4973568;28;20395;-46
2022/11/28 06:52:38;;;;;;;15.05;10.73;;;5.20;99.90;;;;;;4972526;28;20415;-48
2022/11/28 06:55:04;;;;;;;14.73;10.80;;;5.20;99.90;;;;;;4988322;28;20027;-51
2022/11/28 06:57:31;;;;;;;15.73;9.93;;;5.20;99.90;;;;;;4988254;28;20065;-48
2022/11/28 06:59:57;;;;;;;13.52;10.07;;;5.20;99.90;;;;;;4973233;28;20015;-49
2022/11/28 07:02:23;;;;;;;16.15;10.50;;;5.20;99.90;;;;;;4972865;28;20037;-52
2022/11/28 07:04:49;;;;;;;13.68;10.48;;;5.30;99.90;;;;;;4973195;28;20049;-48
2022/11/28 07:07:15;;;;;;;13.30;8.68;;;5.30;99.90;;;;;;4973140;28;20030;-48
2022/11/28 07:09:40;;;;;;;14.40;9.68;;;5.30;99.90;;;;;;4973167;28;20054;-48
2022/11/28 07:12:06;;;;;;;13.45;9.68;;;5.30;99.90;;;;;;4973387;28;20062;-48
2022/11/28 07:14:32;;;;;;;14.02;9.73;;;5.30;99.90;;;;;;4973051;28;20085;-50
2022/11/28 07:16:58;;;;;;;9.88;7.93;;;5.30;99.90;;;;;;4971668;28;20027;-48
2022/11/28 07:19:24;;;;;;;13.13;10.02;;;5.30;99.90;;;;;;4972915;28;20143;-43
2022/11/28 07:21:50;;;;;;;15.68;11.07;;;5.30;99.90;;;;;;4972050;28;20027;-51
2022/11/28 07:24:17;;;;;;;16.30;11.35;;;5.30;99.90;;;;;;4972573;28;20426;-46
2022/11/28 07:26:43;;;;;;;15.38;10.85;;;5.30;99.90;;;;;;4973005;28;20101;-46
2022/11/28 07:29:14;;;;;;;14.38;10.98;;;5.20;99.90;;;;;;4972956;28;20464;-49
2022/11/28 07:31:39;;;;;;;18.33;11.88;;;5.30;99.90;;;;;;4972809;28;20081;-44
2022/11/28 07:34:05;;;;;;;17.88;10.45;;;5.30;99.90;;;;;;4972168;28;20023;-46
2022/11/28 07:36:31;;;;;;;18.42;11.05;;;5.30;99.90;;;;;;4972874;28;20035;-48
2022/11/28 07:38:59;;;;;;;13.30;9.98;;;5.30;99.90;;;;;;4973199;28;20027;-52
2022/11/28 07:41:25;;;;;;;15.82;10.27;;;5.40;99.90;;;;;;4987756;28;20031;-52
2022/11/28 07:44:00;;;;;;;13.38;9.32;;;5.40;99.90;;;;;;4972265;28;20030;-47
2022/11/28 07:46:27;;;;;;;9.98;8.48;;;5.50;99.90;;;;;;4973278;28;20050;-48
2022/11/28 07:48:53;;;;;;;14.98;9.80;;;5.40;99.90;;;;;;4988492;28;20031;-50
2022/11/28 07:51:22;;;;;;;14.45;9.63;;;5.40;99.90;;;;;;4972695;28;20027;-52
2022/11/28 07:53:48;;;;;;;24.27;11.35;;;5.40;99.90;;;;;;4972031;28;20035;-50
2022/11/28 07:56:18;;;;;;;17.23;9.55;;;5.40;99.90;;;;;;4972858;28;20033;-47
2022/11/28 07:58:45;;;;;;;18.02;9.98;;;5.30;99.90;;;;;;4972714;28;20514;-49
2022/11/28 08:01:34;;;;;;;13.20;9.27;;;5.30;99.90;;;;;;4971721;28;20073;-54
2022/11/28 08:04:00;;;;;;;15.70;9.38;;;5.30;99.90;;;;;;4967627;28;20105;-49
2022/11/28 08:06:29;;;;;;;16.17;10.63;;;5.40;99.90;;;;;;4967071;28;20019;-51
2022/11/28 08:08:56;;;;;;;14.25;10.20;;;5.40;99.90;;;;;;4972308;28;20042;-51
2022/11/28 08:11:23;;;;;;;16.00;11.07;;;5.40;99.90;;;;;;4965089;28;20028;-50
2022/11/28 08:13:49;;;;;;;17.20;10.10;;;5.40;99.90;;;;;;4972572;28;20031;-51
2022/11/28 08:16:21;;;;;;;14.40;10.30;;;5.40;99.90;;;;;;4971175;28;20027;-53
2022/11/28 08:18:47;;;;;;;14.68;10.50;;;5.40;99.90;;;;;;4968967;28;20529;-51
2022/11/28 08:21:16;;;;;;;14.40;10.57;;;5.50;99.90;;;;;;4957894;28;20027;-54
2022/11/28 08:23:45;;;;;;;16.13;10.35;;;5.50;99.90;;;;;;4970030;28;20383;-48
2022/11/28 08:26:13;;;;;;;17.80;10.98;;;5.50;99.90;;;;;;4977550;28;20034;-54
2022/11/28 08:28:39;;;;;;;16.98;10.95;;;5.50;99.90;;;;;;4977806;28;20027;-50
2022/11/28 08:31:14;;;;;;;15.32;10.57;;;5.50;99.90;;;;;;4971415;28;20426;-50
2022/11/28 08:33:40;;;;;;;16.42;10.60;;;5.50;99.90;;;;;;4973138;28;20027;-51
2022/11/28 08:36:07;;;;;;;18.85;10.55;;;5.50;99.90;;;;;;4976338;28;20027;-50
2022/11/28 08:38:33;;;;;;;23.13;10.82;;;5.60;99.90;;;;;;4965222;28;20019;-50
2022/11/28 08:41:08;;;;;;;20.65;11.10;;;5.60;99.90;;;;;;4956965;28;20091;-50
2022/11/28 08:43:35;;;;;;;20.70;12.48;;;5.70;99.90;;;;;;4972031;28;20035;-50
2022/11/28 08:46:01;;;;;;;19.70;12.02;;;5.70;99.90;;;;;;4973534;28;20422;-53
2022/11/28 08:48:26;;;;;;;16.50;11.60;;;5.70;99.90;;;;;;4976042;28;20118;-50
2022/11/28 08:50:52;;;;;;;18.20;12.38;;;5.70;99.90;;;;;;4975671;28;20479;-54
2022/11/28 08:53:18;;;;;;;24.95;12.82;;;5.60;99.90;;;;;;4976706;28;20019;-52
2022/11/28 08:55:43;;;;;;;21.15;12.48;;;5.60;99.90;;;;;;4977763;28;20038;-49
2022/11/28 08:58:13;;;;;;;18.20;12.65;;;5.60;99.90;;;;;;4977571;28;20399;-50
2022/11/28 09:00:39;;;;;;;22.52;12.85;;;5.70;99.90;;;;;;4977419;28;20110;-52
2022/11/28 09:03:04;;;;;;;16.15;12.48;;;5.70;99.90;;;;;;4975762;28;20109;-51
2022/11/28 09:05:30;;;;;;;15.82;11.13;;;5.80;99.90;;;;;;4977698;28;20487;-51
2022/11/28 09:07:56;;;;;;;18.02;12.15;;;5.90;99.90;;;;;;4977645;28;20524;-47
2022/11/28 09:10:22;;;;;;;20.67;12.60;;;5.90;99.90;;;;;;4977110;28;20398;-50
2022/11/28 09:12:47;;;;;;;19.90;10.60;;;6.00;99.90;;;;;;4976249;28;20026;-49
2022/11/28 09:15:13;;;;;;;16.67;10.82;;;6.10;99.90;;;;;;4976977;28;20033;-49
2022/11/28 09:17:39;;;;;;;17.58;10.80;;;6.10;99.90;;;;;;4977587;28;20022;-49
2022/11/28 09:20:06;;;;;;;15.80;11.82;;;6.10;99.90;;;;;;4976795;28;20541;-51
2022/11/28 09:22:32;;;;;;;15.88;10.23;;;6.20;99.90;;;;;;4991301;28;20498;-53
2022/11/28 09:24:57;;;;;;;17.55;9.95;;;6.30;99.90;;;;;;4977130;28;20022;-48
2022/11/28 09:27:23;;;;;;;12.32;9.70;;;6.30;99.90;;;;;;4976963;28;20027;-52
2022/11/28 09:29:48;;;;;;;18.90;10.27;;;6.40;99.90;;;;;;4976816;28;20037;-53
2022/11/28 09:32:14;;;;;;;15.00;9.98;;;6.30;99.90;;;;;;4975754;28;20078;-54
2022/11/28 09:34:39;;;;;;;17.15;10.23;;;6.40;99.90;;;;;;4977279;28;20023;-49
2022/11/28 09:37:05;;;;;;;16.40;10.82;;;6.30;99.90;;;;;;4977675;28;20031;-48
2022/11/28 09:39:30;;;;;;;15.88;10.05;;;6.30;99.90;;;;;;4977060;28;20065;-47
2022/11/28 09:42:12;;;;;;;14.75;11.13;;;6.20;99.90;;;;;;4975210;28;20073;-48
2022/11/28 09:44:48;;;;;;;12.75;9.73;;;6.30;99.90;;;;;;4975290;28;20106;-49
2022/11/28 09:47:22;;;;;;;17.13;10.88;;;6.30;99.90;;;;;;4970683;28;20037;-53
2022/11/28 09:50:00;;;;;;;13.50;10.25;;;6.40;99.90;;;;;;4993568;28;20049;-45
2022/11/28 09:52:43;;;;;;;17.88;10.60;;;6.40;99.90;;;;;;4980192;28;20038;-49
2022/11/28 09:55:23;;;;;;;17.92;11.70;;;6.40;99.90;;;;;;4978239;28;20050;-50
2022/11/28 09:57:50;;;;;;;14.90;10.55;;;6.50;99.90;;;;;;4976442;28;20026;-48
2022/11/28 10:00:22;;;;;;;13.82;10.60;;;6.60;99.90;;;;;;4974433;28;20019;-53
2022/11/28 10:03:11;;;;;;;13.40;10.07;;;6.60;99.90;;;;;;4975155;28;20038;-50
2022/11/28 10:05:57;;;;;;;14.65;10.73;;;6.70;99.90;;;;;;4975942;28;20038;-47
2022/11/28 10:08:29;;;;;;;;;;;6.70;99.90;;;;;;4976025;28;20088;-48
2022/11/28 10:11:25;;;;;;;16.10;10.18;;;6.80;99.90;;;;;;4976001;28;19910;-48
2022/11/28 10:14:02;;;;;;;22.02;11.55;;;6.90;99.90;;;;;;4974881;28;20081;-45
2022/11/28 10:16:58;;;;;;;14.50;10.13;;;6.90;99.90;;;;;;4975362;28;20433;-49
2022/11/28 10:19:37;;;;;;;14.70;10.90;;;7.10;99.90;;;;;;4975641;28;20027;-48
2022/11/28 10:22:10;;;;;;;13.98;10.65;;;7.00;99.90;;;;;;4973440;28;20177;-53
2022/11/28 10:24:39;;;;;;;12.68;10.88;;;7.10;99.90;;;;;;4975313;28;20018;-52
2022/11/28 10:27:05;;;;;;;18.45;11.00;;;7.00;99.90;;;;;;4979498;28;20491;-47
2022/11/28 10:29:43;;;;;;;15.85;11.68;;;7.10;99.90;;;;;;4978867;28;20046;-50
2022/11/28 10:32:14;;;;;;;16.25;10.45;;;7.20;99.90;;;;;;4979170;28;20026;-53
2022/11/28 10:34:42;;;;;;;14.50;11.02;;;7.20;99.90;;;;;;4980105;28;20442;-52
2022/11/28 10:37:20;;;;;;;16.75;12.13;;;7.20;99.90;;;;;;4979702;28;20045;-52
2022/11/28 10:39:47;;;;;;;16.98;11.57;;;7.20;99.90;;;;;;4978160;28;20038;-49
2022/11/28 10:42:18;;;;;;;17.40;11.48;;;7.20;99.90;;;;;;4977868;28;20526;-50
2022/11/28 10:45:02;;;;;;;16.40;11.48;;;7.20;99.90;;;;;;4976552;28;20038;-48
2022/11/28 10:47:52;;;;;;;14.23;11.75;;;7.20;99.90;;;;;;4977767;28;20031;-52
2022/11/28 10:50:32;;;;;;;17.73;12.77;;;7.30;99.90;;;;;;4979370;28;20038;-50
2022/11/28 10:53:01;;;;;;;15.27;12.50;;;7.30;99.90;;;;;;4993060;28;20506;-51
2022/11/28 10:56:02;;;;;;;18.20;12.25;;;7.30;99.90;;;;;;4979069;28;20061;-49
2022/11/28 10:58:47;;;;;;;18.98;12.85;;;7.40;99.90;;;;;;4978688;28;20046;-50
2022/11/28 11:01:13;;;;;;;14.55;11.25;;;7.40;99.90;;;;;;4978105;28;20090;-50
2022/11/28 11:03:39;;;;;;;16.42;12.43;;;7.40;99.90;;;;;;4977535;28;20031;-50
2022/11/28 11:06:05;;;;;;;18.73;12.13;;;7.30;99.90;;;;;;4978341;28;20034;-53
2022/11/28 11:08:36;;;;;;;18.55;12.23;;;7.40;99.90;;;;;;4978448;28;20031;-53
2022/11/28 11:11:34;;;;;;;16.67;11.85;;;7.30;99.90;;;;;;4978418;28;20359;-50
2022/11/28 11:14:08;;;;;;;17.77;11.63;;;7.30;99.90;;;;;;4949159;28;20053;-50
2022/11/28 11:16:54;;;;;;;17.25;11.27;;;7.40;99.90;;;;;;4978258;28;20127;-52
2022/11/28 11:19:30;;;;;;;18.58;12.15;;;7.40;99.90;;;;;;4978540;28;20062;-55
2022/11/28 11:22:19;;;;;;;16.98;11.63;;;7.40;99.90;;;;;;4976957;28;20023;-54
2022/11/28 11:25:05;;;;;;;16.90;11.85;;;7.40;99.90;;;;;;4970279;28;20038;-53
2022/11/28 11:27:30;;;;;;;17.60;11.43;;;7.50;99.90;;;;;;4961540;28;20396;-53
2022/11/28 11:29:57;;;;;;;24.67;15.13;;;7.60;99.90;;;;;;4978837;28;20035;-54
2022/11/28 11:32:25;;;;;;;26.98;16.40;;;7.70;99.90;;;;;;4980951;28;20034;-54
2022/11/28 11:34:51;;;;;;;30.08;17.60;;;7.60;99.90;;;;;;4981458;28;20040;-51
2022/11/28 11:37:20;;;;;;;16.40;11.85;;;7.60;99.90;;;;;;4974432;28;20078;-51
2022/11/28 11:39:51;;;;;;;16.98;12.43;;;7.60;99.90;;;;;;4976184;28;20117;-51
2022/11/28 11:42:22;;;;;;;17.85;12.15;;;7.50;99.90;;;;;;4989400;28;20495;-50
2022/11/28 11:44:47;;;;;;;17.83;12.35;;;7.50;99.90;;;;;;4971645;28;20050;-47
2022/11/28 11:47:13;;;;;;;19.33;12.60;;;7.50;99.90;;;;;;4975570;28;20030;-49
2022/11/28 11:50:00;;;;;;;14.57;12.00;;;7.50;99.90;;;;;;4984010;28;20039;-45
2022/11/28 11:52:26;;;;;;;16.35;12.23;;;7.50;99.90;;;;;;4983656;28;20031;-50
2022/11/28 11:55:03;;;;;;;18.02;13.07;;;7.50;99.90;;;;;;5000661;28;20045;-53
2022/11/28 11:57:37;;;;;;;17.88;13.57;;;7.50;99.90;;;;;;4984017;28;20030;-48
2022/11/28 12:00:08;;;;;;;15.98;12.35;;;7.50;99.90;;;;;;4979993;28;20023;-46
2022/11/28 12:02:53;;;;;;;21.90;12.38;;;7.50;99.90;;;;;;5001263;28;20039;-47
2022/11/28 12:05:23;;;;;;;24.10;12.95;;;7.40;99.90;;;;;;4970785;28;20022;-55
2022/11/28 12:08:11;;;;;;;22.77;13.88;;;7.40;99.90;;;;;;4978299;28;20030;-61
2022/11/28 12:11:02;;;;;;;22.85;14.20;;;7.40;99.90;;;;;;4974663;28;20117;-61
2022/11/28 12:13:28;;;;;;;26.17;13.05;;;7.30;99.90;;;;;;4973543;28;20438;-63
2022/11/28 12:16:05;;;;;;;29.13;14.38;;;7.30;99.90;;;;;;4973019;28;20110;-55
2022/11/28 12:18:58;;;;;;;21.40;14.52;;;7.30;99.90;;;;;;4974814;28;20444;-54
2022/11/28 12:21:27;;;;;;;20.65;13.98;;;7.40;99.90;;;;;;4972707;28;20022;-61
2022/11/28 12:24:11;;;;;;;26.48;13.90;;;7.50;99.90;;;;;;4988823;28;20037;-57
2022/11/28 12:27:03;;;;;;;18.60;13.35;;;7.50;99.90;;;;;;4982218;28;20101;-55
2022/11/28 12:30:08;;;;;;;22.00;14.00;;;7.50;99.90;;;;;;4975690;28;20487;-53
2022/11/28 12:32:45;;;;;;;18.15;13.73;;;7.60;99.90;;;;;;4974433;28;20094;-53
2022/11/28 12:35:39;;;;;;;20.00;14.70;;;7.60;99.90;;;;;;4964604;28;20031;-53
2022/11/28 12:38:23;;;;;;;22.30;14.38;;;7.60;99.90;;;;;;4990418;28;20046;-50
2022/11/28 12:41:07;;;;;;;21.50;15.10;;;7.60;99.90;;;;;;4979050;28;20014;-49
2022/11/28 12:44:11;;;;;;;24.23;14.00;;;7.60;99.90;;;;;;4986078;28;20037;-51
2022/11/28 12:47:01;;;;;;;23.98;14.57;;;7.60;99.90;;;;;;4891171;29;20041;-48
2022/11/28 12:50:18;;;;;;;22.67;15.18;;;7.60;99.90;;;;;;4901707;29;20084;-55
2022/11/28 12:53:31;;;;;;;22.90;13.80;;;7.60;99.90;;;;;;4916476;29;20143;-51
2022/11/28 12:56:26;;;;;;;18.23;14.20;;;7.60;99.90;;;;;;4975342;28;20754;-55
2022/11/28 12:59:06;;;;;;;22.10;15.15;;;7.70;99.90;;;;;;4975665;28;20051;-49
2022/11/28 13:01:43;;;;;;;22.83;15.95;;;7.70;99.90;;;;;;4974844;28;20023;-53
2022/11/28 13:04:43;;;;;;;22.00;15.85;;;7.60;99.90;;;;;;4974154;28;20027;-57
2022/11/28 13:07:28;;;;;;;23.52;14.80;;;7.60;99.90;;;;;;4975483;28;20037;-56
2022/11/28 13:10:02;;;;;;;25.95;15.55;;;7.60;99.90;;;;;;4976087;28;20487;-54
2022/11/28 13:12:39;;;;;;;58.20;38.70;;;7.60;99.90;;;;;;4992562;23;20137;-50